sensor_id;sensor_type;location;lat;lon;timestamp;P1;durP1;ratioP1;P2;durP2;ratioP2
36191;SDS011;22233;42.708;23.360;2022-12-24T00:00:24;76.53;;;40.00;;
36191;SDS011;22233;42.708;23.360;2022-12-24T00:02:49;85.10;;;43.13;;
36191;SDS011;22233;42.708;23.360;2022-12-24T00:05:15;76.30;;;36.30;;
36191;SDS011;22233;42.708;23.360;2022-12-24T00:07:41;76.78;;;37.25;;
36191;SDS011;22233;42.708;23.360;2022-12-24T00:10:07;72.35;;;38.25;;
36191;SDS011;22233;42.708;23.360;2022-12-24T00:12:33;65.10;;;34.85;;
36191;SDS011;22233;42.708;23.360;2022-12-24T00:14:58;75.38;;;36.97;;
36191;SDS011;22233;42.708;23.360;2022-12-24T00:17:24;70.57;;;39.92;;
36191;SDS011;22233;42.708;23.360;2022-12-24T00:19:49;61.42;;;33.80;;
36191;SDS011;22233;42.708;23.360;2022-12-24T00:22:14;68.95;;;35.28;;
36191;SDS011;22233;42.708;23.360;2022-12-24T00:24:40;66.47;;;33.58;;
36191;SDS011;22233;42.708;23.360;2022-12-24T00:27:05;72.40;;;36.78;;
36191;SDS011;22233;42.708;23.360;2022-12-24T00:29:31;62.33;;;32.70;;
36191;SDS011;22233;42.708;23.360;2022-12-24T00:31:57;62.08;;;34.30;;
36191;SDS011;22233;42.708;23.360;2022-12-24T00:34:23;75.47;;;34.65;;
36191;SDS011;22233;42.708;23.360;2022-12-24T00:36:49;64.88;;;33.22;;
36191;SDS011;22233;42.708;23.360;2022-12-24T00:39:15;62.13;;;32.45;;
36191;SDS011;22233;42.708;23.360;2022-12-24T00:41:41;56.13;;;30.13;;
36191;SDS011;22233;42.708;23.360;2022-12-24T00:44:07;62.50;;;31.17;;
36191;SDS011;22233;42.708;23.360;2022-12-24T00:46:39;55.30;;;28.30;;
36191;SDS011;22233;42.708;23.360;2022-12-24T00:49:06;53.03;;;26.35;;
36191;SDS011;22233;42.708;23.360;2022-12-24T00:51:33;48.37;;;25.80;;
36191;SDS011;22233;42.708;23.360;2022-12-24T00:53:59;52.30;;;26.05;;
36191;SDS011;22233;42.708;23.360;2022-12-24T00:56:25;50.97;;;28.23;;
36191;SDS011;22233;42.708;23.360;2022-12-24T00:58:50;50.83;;;25.67;;
36191;SDS011;22233;42.708;23.360;2022-12-24T01:01:16;48.90;;;23.65;;
36191;SDS011;22233;42.708;23.360;2022-12-24T01:03:42;41.45;;;23.25;;
36191;SDS011;22233;42.708;23.360;2022-12-24T01:06:12;44.15;;;23.30;;
36191;SDS011;22233;42.708;23.360;2022-12-24T01:08:39;45.75;;;25.63;;
36191;SDS011;22233;42.708;23.360;2022-12-24T01:11:05;47.83;;;24.90;;
36191;SDS011;22233;42.708;23.360;2022-12-24T01:13:32;35.45;;;22.00;;
36191;SDS011;22233;42.708;23.360;2022-12-24T01:15:58;30.58;;;20.98;;
36191;SDS011;22233;42.708;23.360;2022-12-24T01:18:24;43.67;;;23.88;;
36191;SDS011;22233;42.708;23.360;2022-12-24T01:20:59;47.50;;;25.55;;
36191;SDS011;22233;42.708;23.360;2022-12-24T01:23:26;49.08;;;27.83;;
36191;SDS011;22233;42.708;23.360;2022-12-24T01:25:53;47.83;;;26.60;;
36191;SDS011;22233;42.708;23.360;2022-12-24T01:28:19;46.92;;;24.02;;
36191;SDS011;22233;42.708;23.360;2022-12-24T01:30:45;45.90;;;23.42;;
36191;SDS011;22233;42.708;23.360;2022-12-24T01:33:11;42.30;;;23.52;;
36191;SDS011;22233;42.708;23.360;2022-12-24T01:35:40;39.85;;;21.98;;
36191;SDS011;22233;42.708;23.360;2022-12-24T01:38:06;59.65;;;30.48;;
36191;SDS011;22233;42.708;23.360;2022-12-24T01:40:32;63.95;;;29.90;;
36191;SDS011;22233;42.708;23.360;2022-12-24T01:43:17;59.38;;;31.65;;
36191;SDS011;22233;42.708;23.360;2022-12-24T01:48:16;57.28;;;32.47;;
36191;SDS011;22233;42.708;23.360;2022-12-24T01:51:00;56.63;;;30.20;;
36191;SDS011;22233;42.708;23.360;2022-12-24T01:53:29;53.03;;;29.40;;
36191;SDS011;22233;42.708;23.360;2022-12-24T01:55:55;47.83;;;29.30;;
36191;SDS011;22233;42.708;23.360;2022-12-24T01:58:22;62.17;;;33.25;;
36191;SDS011;22233;42.708;23.360;2022-12-24T02:00:49;66.82;;;34.60;;
36191;SDS011;22233;42.708;23.360;2022-12-24T02:03:15;70.15;;;34.60;;
36191;SDS011;22233;42.708;23.360;2022-12-24T02:05:45;61.08;;;32.55;;
36191;SDS011;22233;42.708;23.360;2022-12-24T02:08:15;53.55;;;30.80;;
36191;SDS011;22233;42.708;23.360;2022-12-24T02:10:43;59.15;;;29.30;;
36191;SDS011;22233;42.708;23.360;2022-12-24T02:13:09;60.88;;;29.98;;
36191;SDS011;22233;42.708;23.360;2022-12-24T02:18:15;60.53;;;33.05;;
36191;SDS011;22233;42.708;23.360;2022-12-24T02:34:39;72.13;;;33.65;;
36191;SDS011;22233;42.708;23.360;2022-12-24T02:37:22;63.97;;;32.00;;
36191;SDS011;22233;42.708;23.360;2022-12-24T02:42:23;69.65;;;37.78;;
36191;SDS011;22233;42.708;23.360;2022-12-24T02:45:04;73.07;;;37.28;;
36191;SDS011;22233;42.708;23.360;2022-12-24T02:47:33;70.30;;;37.55;;
36191;SDS011;22233;42.708;23.360;2022-12-24T02:49:59;66.07;;;35.03;;
36191;SDS011;22233;42.708;23.360;2022-12-24T02:52:30;73.90;;;38.28;;
36191;SDS011;22233;42.708;23.360;2022-12-24T02:54:57;70.35;;;36.95;;
36191;SDS011;22233;42.708;23.360;2022-12-24T03:00:07;64.47;;;35.47;;
36191;SDS011;22233;42.708;23.360;2022-12-24T03:02:44;62.20;;;36.10;;
36191;SDS011;22233;42.708;23.360;2022-12-24T03:05:28;66.00;;;33.60;;
36191;SDS011;22233;42.708;23.360;2022-12-24T03:07:58;61.10;;;33.88;;
36191;SDS011;22233;42.708;23.360;2022-12-24T03:10:59;50.47;;;30.70;;
36191;SDS011;22233;42.708;23.360;2022-12-24T03:13:30;50.00;;;28.40;;
36191;SDS011;22233;42.708;23.360;2022-12-24T03:15:55;53.85;;;28.35;;
36191;SDS011;22233;42.708;23.360;2022-12-24T03:18:24;50.70;;;27.90;;
36191;SDS011;22233;42.708;23.360;2022-12-24T03:20:57;48.92;;;25.98;;
36191;SDS011;22233;42.708;23.360;2022-12-24T03:23:28;47.85;;;24.52;;
36191;SDS011;22233;42.708;23.360;2022-12-24T03:25:53;44.97;;;23.00;;
36191;SDS011;22233;42.708;23.360;2022-12-24T03:28:23;44.40;;;23.05;;
36191;SDS011;22233;42.708;23.360;2022-12-24T03:30:51;46.75;;;23.05;;
36191;SDS011;22233;42.708;23.360;2022-12-24T03:33:17;45.15;;;21.88;;
36191;SDS011;22233;42.708;23.360;2022-12-24T03:35:43;45.08;;;21.75;;
36191;SDS011;22233;42.708;23.360;2022-12-24T03:38:09;40.33;;;20.77;;
36191;SDS011;22233;42.708;23.360;2022-12-24T03:40:35;36.97;;;21.50;;
36191;SDS011;22233;42.708;23.360;2022-12-24T03:43:00;46.90;;;21.83;;
36191;SDS011;22233;42.708;23.360;2022-12-24T03:45:26;47.53;;;21.60;;
36191;SDS011;22233;42.708;23.360;2022-12-24T03:47:51;37.53;;;21.73;;
36191;SDS011;22233;42.708;23.360;2022-12-24T03:50:17;43.60;;;22.42;;
36191;SDS011;22233;42.708;23.360;2022-12-24T03:52:42;47.78;;;25.38;;
36191;SDS011;22233;42.708;23.360;2022-12-24T03:55:08;39.85;;;23.40;;
36191;SDS011;22233;42.708;23.360;2022-12-24T03:57:33;44.22;;;22.08;;
36191;SDS011;22233;42.708;23.360;2022-12-24T03:59:59;42.17;;;22.70;;
36191;SDS011;22233;42.708;23.360;2022-12-24T04:02:24;39.78;;;20.92;;
36191;SDS011;22233;42.708;23.360;2022-12-24T04:04:50;43.15;;;21.85;;
36191;SDS011;22233;42.708;23.360;2022-12-24T04:07:15;38.35;;;20.95;;
36191;SDS011;22233;42.708;23.360;2022-12-24T04:09:41;42.13;;;20.98;;
36191;SDS011;22233;42.708;23.360;2022-12-24T04:12:06;38.33;;;21.02;;
36191;SDS011;22233;42.708;23.360;2022-12-24T04:14:32;39.28;;;22.15;;
36191;SDS011;22233;42.708;23.360;2022-12-24T04:16:57;40.58;;;20.38;;
36191;SDS011;22233;42.708;23.360;2022-12-24T04:19:23;41.42;;;19.77;;
36191;SDS011;22233;42.708;23.360;2022-12-24T04:21:48;46.88;;;22.17;;
36191;SDS011;22233;42.708;23.360;2022-12-24T04:24:14;44.20;;;23.02;;
36191;SDS011;22233;42.708;23.360;2022-12-24T04:26:39;40.55;;;20.02;;
36191;SDS011;22233;42.708;23.360;2022-12-24T04:29:05;43.53;;;19.63;;
36191;SDS011;22233;42.708;23.360;2022-12-24T04:31:30;37.20;;;19.20;;
36191;SDS011;22233;42.708;23.360;2022-12-24T04:33:56;42.58;;;20.42;;
36191;SDS011;22233;42.708;23.360;2022-12-24T04:36:21;49.20;;;20.48;;
36191;SDS011;22233;42.708;23.360;2022-12-24T04:38:47;36.50;;;21.52;;
36191;SDS011;22233;42.708;23.360;2022-12-24T04:41:15;40.58;;;20.35;;
36191;SDS011;22233;42.708;23.360;2022-12-24T04:43:42;38.47;;;20.38;;
36191;SDS011;22233;42.708;23.360;2022-12-24T04:46:09;43.80;;;20.83;;
36191;SDS011;22233;42.708;23.360;2022-12-24T04:48:42;43.97;;;21.35;;
36191;SDS011;22233;42.708;23.360;2022-12-24T04:51:07;30.13;;;17.63;;
36191;SDS011;22233;42.708;23.360;2022-12-24T04:53:34;41.80;;;18.85;;
36191;SDS011;22233;42.708;23.360;2022-12-24T04:56:01;41.55;;;17.92;;
36191;SDS011;22233;42.708;23.360;2022-12-24T04:58:27;29.17;;;17.30;;
36191;SDS011;22233;42.708;23.360;2022-12-24T05:00:53;34.13;;;17.83;;
36191;SDS011;22233;42.708;23.360;2022-12-24T05:03:19;28.90;;;16.08;;
36191;SDS011;22233;42.708;23.360;2022-12-24T05:05:45;30.67;;;16.27;;
36191;SDS011;22233;42.708;23.360;2022-12-24T05:08:11;29.17;;;15.93;;
36191;SDS011;22233;42.708;23.360;2022-12-24T05:10:37;34.30;;;16.88;;
36191;SDS011;22233;42.708;23.360;2022-12-24T05:13:02;23.88;;;14.55;;
36191;SDS011;22233;42.708;23.360;2022-12-24T05:15:28;33.58;;;16.30;;
36191;SDS011;22233;42.708;23.360;2022-12-24T05:17:53;29.73;;;14.15;;
36191;SDS011;22233;42.708;23.360;2022-12-24T05:20:19;30.48;;;16.42;;
36191;SDS011;22233;42.708;23.360;2022-12-24T05:22:44;26.35;;;12.75;;
36191;SDS011;22233;42.708;23.360;2022-12-24T05:25:31;22.50;;;11.65;;
36191;SDS011;22233;42.708;23.360;2022-12-24T05:28:19;20.05;;;10.15;;
36191;SDS011;22233;42.708;23.360;2022-12-24T05:30:44;25.75;;;13.85;;
36191;SDS011;22233;42.708;23.360;2022-12-24T05:33:10;22.33;;;13.23;;
36191;SDS011;22233;42.708;23.360;2022-12-24T05:35:35;27.35;;;13.35;;
36191;SDS011;22233;42.708;23.360;2022-12-24T05:38:00;23.45;;;13.38;;
36191;SDS011;22233;42.708;23.360;2022-12-24T05:40:26;21.38;;;13.98;;
36191;SDS011;22233;42.708;23.360;2022-12-24T05:42:51;21.92;;;11.43;;
36191;SDS011;22233;42.708;23.360;2022-12-24T05:45:17;22.27;;;12.80;;
36191;SDS011;22233;42.708;23.360;2022-12-24T05:47:42;20.20;;;10.98;;
36191;SDS011;22233;42.708;23.360;2022-12-24T05:50:08;17.20;;;11.95;;
36191;SDS011;22233;42.708;23.360;2022-12-24T05:52:34;24.10;;;12.30;;
36191;SDS011;22233;42.708;23.360;2022-12-24T05:54:59;19.05;;;12.15;;
36191;SDS011;22233;42.708;23.360;2022-12-24T05:57:24;20.38;;;11.77;;
36191;SDS011;22233;42.708;23.360;2022-12-24T05:59:50;23.02;;;12.50;;
36191;SDS011;22233;42.708;23.360;2022-12-24T06:02:15;20.75;;;11.00;;
36191;SDS011;22233;42.708;23.360;2022-12-24T06:04:42;21.83;;;10.55;;
36191;SDS011;22233;42.708;23.360;2022-12-24T06:07:07;23.20;;;12.25;;
36191;SDS011;22233;42.708;23.360;2022-12-24T06:09:33;15.20;;;10.68;;
36191;SDS011;22233;42.708;23.360;2022-12-24T06:11:58;14.85;;;9.07;;
36191;SDS011;22233;42.708;23.360;2022-12-24T06:14:24;21.40;;;10.52;;
36191;SDS011;22233;42.708;23.360;2022-12-24T06:16:49;20.52;;;10.07;;
36191;SDS011;22233;42.708;23.360;2022-12-24T06:19:15;11.98;;;7.85;;
36191;SDS011;22233;42.708;23.360;2022-12-24T06:21:40;17.67;;;9.43;;
36191;SDS011;22233;42.708;23.360;2022-12-24T06:24:06;15.27;;;10.15;;
36191;SDS011;22233;42.708;23.360;2022-12-24T06:26:31;20.20;;;10.43;;
36191;SDS011;22233;42.708;23.360;2022-12-24T06:28:57;13.40;;;8.75;;
36191;SDS011;22233;42.708;23.360;2022-12-24T06:31:22;15.05;;;9.10;;
36191;SDS011;22233;42.708;23.360;2022-12-24T06:33:48;16.50;;;9.23;;
36191;SDS011;22233;42.708;23.360;2022-12-24T06:36:16;14.05;;;9.00;;
36191;SDS011;22233;42.708;23.360;2022-12-24T06:38:43;15.77;;;9.50;;
36191;SDS011;22233;42.708;23.360;2022-12-24T06:41:09;21.35;;;10.38;;
36191;SDS011;22233;42.708;23.360;2022-12-24T06:43:34;33.35;;;13.40;;
36191;SDS011;22233;42.708;23.360;2022-12-24T06:46:01;23.00;;;12.70;;
36191;SDS011;22233;42.708;23.360;2022-12-24T06:48:27;25.60;;;14.83;;
36191;SDS011;22233;42.708;23.360;2022-12-24T06:50:52;24.13;;;14.27;;
36191;SDS011;22233;42.708;23.360;2022-12-24T06:53:18;26.13;;;15.05;;
36191;SDS011;22233;42.708;23.360;2022-12-24T06:55:43;30.58;;;16.25;;
36191;SDS011;22233;42.708;23.360;2022-12-24T06:58:08;31.52;;;16.13;;
36191;SDS011;22233;42.708;23.360;2022-12-24T07:00:34;30.00;;;17.17;;
36191;SDS011;22233;42.708;23.360;2022-12-24T07:02:59;32.67;;;18.77;;
36191;SDS011;22233;42.708;23.360;2022-12-24T07:05:25;39.22;;;18.30;;
36191;SDS011;22233;42.708;23.360;2022-12-24T07:07:51;31.88;;;19.05;;
36191;SDS011;22233;42.708;23.360;2022-12-24T07:10:17;35.05;;;19.08;;
36191;SDS011;22233;42.708;23.360;2022-12-24T07:12:43;41.53;;;21.67;;
36191;SDS011;22233;42.708;23.360;2022-12-24T07:15:09;50.70;;;26.85;;
36191;SDS011;22233;42.708;23.360;2022-12-24T07:17:35;51.47;;;27.90;;
36191;SDS011;22233;42.708;23.360;2022-12-24T07:20:01;52.55;;;26.90;;
36191;SDS011;22233;42.708;23.360;2022-12-24T07:22:28;46.10;;;24.10;;
36191;SDS011;22233;42.708;23.360;2022-12-24T07:24:53;54.03;;;25.60;;
36191;SDS011;22233;42.708;23.360;2022-12-24T07:27:19;57.10;;;31.00;;
36191;SDS011;22233;42.708;23.360;2022-12-24T07:29:44;60.42;;;28.73;;
36191;SDS011;22233;42.708;23.360;2022-12-24T07:32:09;52.83;;;27.38;;
36191;SDS011;22233;42.708;23.360;2022-12-24T07:34:35;54.95;;;28.35;;
36191;SDS011;22233;42.708;23.360;2022-12-24T07:37:00;52.60;;;29.05;;
36191;SDS011;22233;42.708;23.360;2022-12-24T07:39:26;60.42;;;30.05;;
36191;SDS011;22233;42.708;23.360;2022-12-24T07:41:51;51.40;;;27.63;;
36191;SDS011;22233;42.708;23.360;2022-12-24T07:44:16;48.67;;;27.80;;
36191;SDS011;22233;42.708;23.360;2022-12-24T07:46:42;51.58;;;28.70;;
36191;SDS011;22233;42.708;23.360;2022-12-24T07:49:08;42.33;;;26.98;;
36191;SDS011;22233;42.708;23.360;2022-12-24T07:51:34;49.55;;;26.90;;
36191;SDS011;22233;42.708;23.360;2022-12-24T07:54:00;51.78;;;26.23;;
36191;SDS011;22233;42.708;23.360;2022-12-24T07:56:25;38.65;;;23.05;;
36191;SDS011;22233;42.708;23.360;2022-12-24T07:58:51;44.90;;;24.00;;
36191;SDS011;22233;42.708;23.360;2022-12-24T08:01:16;39.15;;;21.13;;
36191;SDS011;22233;42.708;23.360;2022-12-24T08:03:43;42.13;;;24.10;;
36191;SDS011;22233;42.708;23.360;2022-12-24T08:06:08;39.10;;;22.30;;
36191;SDS011;22233;42.708;23.360;2022-12-24T08:08:35;34.58;;;19.65;;
36191;SDS011;22233;42.708;23.360;2022-12-24T08:11:01;35.00;;;20.23;;
36191;SDS011;22233;42.708;23.360;2022-12-24T08:13:28;29.30;;;16.42;;
36191;SDS011;22233;42.708;23.360;2022-12-24T08:15:53;25.70;;;14.90;;
36191;SDS011;22233;42.708;23.360;2022-12-24T08:18:19;25.58;;;15.23;;
36191;SDS011;22233;42.708;23.360;2022-12-24T08:20:45;19.33;;;13.35;;
36191;SDS011;22233;42.708;23.360;2022-12-24T08:23:10;24.13;;;13.57;;
36191;SDS011;22233;42.708;23.360;2022-12-24T08:25:36;21.63;;;12.32;;
36191;SDS011;22233;42.708;23.360;2022-12-24T08:28:02;21.15;;;13.05;;
36191;SDS011;22233;42.708;23.360;2022-12-24T08:30:28;22.38;;;12.27;;
36191;SDS011;22233;42.708;23.360;2022-12-24T08:32:53;25.83;;;13.23;;
36191;SDS011;22233;42.708;23.360;2022-12-24T08:35:19;20.90;;;13.25;;
36191;SDS011;22233;42.708;23.360;2022-12-24T08:37:44;24.67;;;12.50;;
36191;SDS011;22233;42.708;23.360;2022-12-24T08:40:10;22.25;;;12.98;;
36191;SDS011;22233;42.708;23.360;2022-12-24T08:42:36;23.95;;;13.45;;
36191;SDS011;22233;42.708;23.360;2022-12-24T08:45:02;21.98;;;13.52;;
36191;SDS011;22233;42.708;23.360;2022-12-24T08:47:27;25.75;;;14.02;;
36191;SDS011;22233;42.708;23.360;2022-12-24T08:49:53;26.65;;;13.73;;
36191;SDS011;22233;42.708;23.360;2022-12-24T08:52:18;23.45;;;14.52;;
36191;SDS011;22233;42.708;23.360;2022-12-24T08:54:43;30.05;;;16.10;;
36191;SDS011;22233;42.708;23.360;2022-12-24T08:57:09;26.83;;;15.32;;
36191;SDS011;22233;42.708;23.360;2022-12-24T08:59:34;26.08;;;15.02;;
36191;SDS011;22233;42.708;23.360;2022-12-24T09:02:00;20.98;;;13.18;;
36191;SDS011;22233;42.708;23.360;2022-12-24T09:04:26;29.27;;;14.70;;
36191;SDS011;22233;42.708;23.360;2022-12-24T09:06:51;27.38;;;16.23;;
36191;SDS011;22233;42.708;23.360;2022-12-24T09:09:17;26.05;;;15.10;;
36191;SDS011;22233;42.708;23.360;2022-12-24T09:11:42;30.70;;;16.73;;
36191;SDS011;22233;42.708;23.360;2022-12-24T09:14:09;27.27;;;15.25;;
36191;SDS011;22233;42.708;23.360;2022-12-24T09:16:34;28.67;;;16.52;;
36191;SDS011;22233;42.708;23.360;2022-12-24T09:19:00;30.33;;;16.23;;
36191;SDS011;22233;42.708;23.360;2022-12-24T09:21:25;23.27;;;14.50;;
36191;SDS011;22233;42.708;23.360;2022-12-24T09:23:50;24.08;;;13.82;;
36191;SDS011;22233;42.708;23.360;2022-12-24T09:26:20;29.13;;;15.02;;
36191;SDS011;22233;42.708;23.360;2022-12-24T09:28:48;28.08;;;14.98;;
36191;SDS011;22233;42.708;23.360;2022-12-24T09:31:13;30.67;;;14.90;;
36191;SDS011;22233;42.708;23.360;2022-12-24T09:33:39;27.55;;;16.05;;
36191;SDS011;22233;42.708;23.360;2022-12-24T09:36:06;28.27;;;13.30;;
36191;SDS011;22233;42.708;23.360;2022-12-24T09:38:32;25.70;;;13.15;;
36191;SDS011;22233;42.708;23.360;2022-12-24T09:40:58;20.50;;;12.77;;
36191;SDS011;22233;42.708;23.360;2022-12-24T09:43:30;21.40;;;13.25;;
36191;SDS011;22233;42.708;23.360;2022-12-24T09:48:45;19.55;;;11.32;;
36191;SDS011;22233;42.708;23.360;2022-12-24T09:51:17;22.15;;;11.50;;
36191;SDS011;22233;42.708;23.360;2022-12-24T09:54:14;19.27;;;11.20;;
36191;SDS011;22233;42.708;23.360;2022-12-24T09:56:47;21.08;;;10.57;;
36191;SDS011;22233;42.708;23.360;2022-12-24T10:01:46;16.95;;;9.65;;
36191;SDS011;22233;42.708;23.360;2022-12-24T10:04:16;19.40;;;11.60;;
36191;SDS011;22233;42.708;23.360;2022-12-24T10:22:51;21.73;;;11.55;;
36191;SDS011;22233;42.708;23.360;2022-12-24T10:25:24;17.13;;;10.85;;
36191;SDS011;22233;42.708;23.360;2022-12-24T10:27:54;19.95;;;11.85;;
36191;SDS011;22233;42.708;23.360;2022-12-24T10:30:24;20.17;;;11.60;;
36191;SDS011;22233;42.708;23.360;2022-12-24T10:32:50;19.70;;;11.05;;
36191;SDS011;22233;42.708;23.360;2022-12-24T10:35:28;22.70;;;12.73;;
36191;SDS011;22233;42.708;23.360;2022-12-24T10:37:59;21.10;;;12.43;;
36191;SDS011;22233;42.708;23.360;2022-12-24T10:43:21;16.88;;;10.23;;
36191;SDS011;22233;42.708;23.360;2022-12-24T10:45:50;19.88;;;12.48;;
36191;SDS011;22233;42.708;23.360;2022-12-24T10:48:20;22.00;;;12.50;;
36191;SDS011;22233;42.708;23.360;2022-12-24T10:50:58;20.48;;;11.77;;
36191;SDS011;22233;42.708;23.360;2022-12-24T10:53:39;18.90;;;11.93;;
36191;SDS011;22233;42.708;23.360;2022-12-24T10:56:09;20.15;;;11.48;;
36191;SDS011;22233;42.708;23.360;2022-12-24T10:58:42;23.05;;;12.35;;
36191;SDS011;22233;42.708;23.360;2022-12-24T11:01:15;21.02;;;12.18;;
36191;SDS011;22233;42.708;23.360;2022-12-24T11:03:40;20.52;;;10.63;;
36191;SDS011;22233;42.708;23.360;2022-12-24T11:08:32;19.35;;;12.25;;
36191;SDS011;22233;42.708;23.360;2022-12-24T11:10:59;21.00;;;12.05;;
36191;SDS011;22233;42.708;23.360;2022-12-24T11:13:28;20.98;;;12.65;;
36191;SDS011;22233;42.708;23.360;2022-12-24T11:16:00;23.77;;;12.45;;
36191;SDS011;22233;42.708;23.360;2022-12-24T11:18:26;22.00;;;12.38;;
36191;SDS011;22233;42.708;23.360;2022-12-24T11:20:52;17.80;;;10.63;;
36191;SDS011;22233;42.708;23.360;2022-12-24T11:23:17;24.20;;;13.75;;
36191;SDS011;22233;42.708;23.360;2022-12-24T11:25:47;31.98;;;15.02;;
36191;SDS011;22233;42.708;23.360;2022-12-24T11:30:56;25.23;;;14.27;;
36191;SDS011;22233;42.708;23.360;2022-12-24T11:33:27;23.92;;;14.85;;
36191;SDS011;22233;42.708;23.360;2022-12-24T11:35:59;27.98;;;14.95;;
36191;SDS011;22233;42.708;23.360;2022-12-24T11:38:27;26.02;;;14.35;;
36191;SDS011;22233;42.708;23.360;2022-12-24T11:41:12;27.50;;;14.77;;
36191;SDS011;22233;42.708;23.360;2022-12-24T11:43:44;26.90;;;15.05;;
36191;SDS011;22233;42.708;23.360;2022-12-24T11:46:14;25.15;;;13.07;;
36191;SDS011;22233;42.708;23.360;2022-12-24T11:49:04;24.42;;;12.68;;
36191;SDS011;22233;42.708;23.360;2022-12-24T11:51:37;22.20;;;15.15;;
36191;SDS011;22233;42.708;23.360;2022-12-24T11:56:43;24.38;;;13.80;;
36191;SDS011;22233;42.708;23.360;2022-12-24T11:59:14;29.45;;;15.85;;
36191;SDS011;22233;42.708;23.360;2022-12-24T12:02:05;27.10;;;14.38;;
36191;SDS011;22233;42.708;23.360;2022-12-24T12:04:38;24.08;;;13.43;;
36191;SDS011;22233;42.708;23.360;2022-12-24T12:07:10;25.27;;;15.40;;
36191;SDS011;22233;42.708;23.360;2022-12-24T12:09:49;23.17;;;14.80;;
36191;SDS011;22233;42.708;23.360;2022-12-24T12:12:21;25.85;;;15.20;;
36191;SDS011;22233;42.708;23.360;2022-12-24T12:17:35;26.90;;;15.38;;
36191;SDS011;22233;42.708;23.360;2022-12-24T12:20:24;27.70;;;15.38;;
36191;SDS011;22233;42.708;23.360;2022-12-24T12:22:57;26.02;;;14.45;;
36191;SDS011;22233;42.708;23.360;2022-12-24T12:28:22;27.33;;;16.17;;
36191;SDS011;22233;42.708;23.360;2022-12-24T12:33:48;27.50;;;15.05;;
36191;SDS011;22233;42.708;23.360;2022-12-24T12:36:18;24.35;;;13.95;;
36191;SDS011;22233;42.708;23.360;2022-12-24T12:38:47;25.67;;;13.75;;
36191;SDS011;22233;42.708;23.360;2022-12-24T12:52:19;24.75;;;14.07;;
36191;SDS011;22233;42.708;23.360;2022-12-24T12:55:03;27.10;;;13.25;;
36191;SDS011;22233;42.708;23.360;2022-12-24T12:57:48;25.85;;;14.27;;
36191;SDS011;22233;42.708;23.360;2022-12-24T13:00:18;21.40;;;13.48;;
36191;SDS011;22233;42.708;23.360;2022-12-24T13:02:49;27.52;;;14.05;;
36191;SDS011;22233;42.708;23.360;2022-12-24T13:19:33;20.60;;;13.20;;
36191;SDS011;22233;42.708;23.360;2022-12-24T13:22:15;20.90;;;13.02;;
36191;SDS011;22233;42.708;23.360;2022-12-24T13:24:46;19.33;;;11.63;;
36191;SDS011;22233;42.708;23.360;2022-12-24T13:27:16;24.05;;;13.63;;
36191;SDS011;22233;42.708;23.360;2022-12-24T13:34:59;25.52;;;14.25;;
36191;SDS011;22233;42.708;23.360;2022-12-24T13:48:28;23.90;;;13.38;;
36191;SDS011;22233;42.708;23.360;2022-12-24T13:50:49;24.05;;;12.13;;
36191;SDS011;22233;42.708;23.360;2022-12-24T13:53:22;20.40;;;12.63;;
36191;SDS011;22233;42.708;23.360;2022-12-24T13:58:27;25.27;;;14.20;;
36191;SDS011;22233;42.708;23.360;2022-12-24T14:00:54;24.00;;;13.88;;
36191;SDS011;22233;42.708;23.360;2022-12-24T14:03:24;29.13;;;14.93;;
36191;SDS011;22233;42.708;23.360;2022-12-24T14:06:00;28.83;;;17.58;;
36191;SDS011;22233;42.708;23.360;2022-12-24T14:08:40;33.60;;;20.15;;
36191;SDS011;22233;42.708;23.360;2022-12-24T14:11:10;29.27;;;17.00;;
36191;SDS011;22233;42.708;23.360;2022-12-24T14:18:32;25.38;;;14.85;;
36191;SDS011;22233;42.708;23.360;2022-12-24T14:21:02;27.25;;;15.00;;
36191;SDS011;22233;42.708;23.360;2022-12-24T14:23:40;28.73;;;15.68;;
36191;SDS011;22233;42.708;23.360;2022-12-24T14:26:26;30.73;;;16.55;;
36191;SDS011;22233;42.708;23.360;2022-12-24T14:28:58;40.17;;;20.02;;
36191;SDS011;22233;42.708;23.360;2022-12-24T14:31:27;37.60;;;19.58;;
36191;SDS011;22233;42.708;23.360;2022-12-24T14:34:04;27.90;;;17.13;;
36191;SDS011;22233;42.708;23.360;2022-12-24T14:36:33;31.67;;;18.70;;
36191;SDS011;22233;42.708;23.360;2022-12-24T14:38:59;35.00;;;18.13;;
36191;SDS011;22233;42.708;23.360;2022-12-24T14:41:38;32.83;;;19.50;;
36191;SDS011;22233;42.708;23.360;2022-12-24T14:46:47;42.72;;;22.30;;
36191;SDS011;22233;42.708;23.360;2022-12-24T14:49:27;36.72;;;18.27;;
36191;SDS011;22233;42.708;23.360;2022-12-24T14:54:46;42.33;;;23.25;;
36191;SDS011;22233;42.708;23.360;2022-12-24T14:57:20;44.63;;;23.63;;
36191;SDS011;22233;42.708;23.360;2022-12-24T15:07:38;39.05;;;21.88;;
36191;SDS011;22233;42.708;23.360;2022-12-24T15:12:47;32.25;;;19.13;;
36191;SDS011;22233;42.708;23.360;2022-12-24T15:15:14;30.35;;;18.15;;
36191;SDS011;22233;42.708;23.360;2022-12-24T15:17:42;33.00;;;18.75;;
36191;SDS011;22233;42.708;23.360;2022-12-24T15:20:15;29.90;;;18.23;;
36191;SDS011;22233;42.708;23.360;2022-12-24T15:22:44;30.42;;;18.30;;
36191;SDS011;22233;42.708;23.360;2022-12-24T15:25:23;33.20;;;18.40;;
36191;SDS011;22233;42.708;23.360;2022-12-24T15:27:51;30.10;;;17.15;;
36191;SDS011;22233;42.708;23.360;2022-12-24T15:30:18;32.30;;;17.10;;
36191;SDS011;22233;42.708;23.360;2022-12-24T15:32:46;34.20;;;17.45;;
36191;SDS011;22233;42.708;23.360;2022-12-24T15:35:30;31.08;;;17.30;;
36191;SDS011;22233;42.708;23.360;2022-12-24T15:37:58;29.77;;;16.95;;
36191;SDS011;22233;42.708;23.360;2022-12-24T15:40:24;28.30;;;17.23;;
36191;SDS011;22233;42.708;23.360;2022-12-24T15:42:50;29.77;;;16.58;;
36191;SDS011;22233;42.708;23.360;2022-12-24T15:45:18;30.27;;;16.23;;
36191;SDS011;22233;42.708;23.360;2022-12-24T15:47:50;29.17;;;16.33;;
36191;SDS011;22233;42.708;23.360;2022-12-24T15:52:56;32.83;;;17.50;;
36191;SDS011;22233;42.708;23.360;2022-12-24T15:55:36;38.70;;;19.40;;
36191;SDS011;22233;42.708;23.360;2022-12-24T15:58:24;30.88;;;17.73;;
36191;SDS011;22233;42.708;23.360;2022-12-24T16:01:05;31.45;;;16.48;;
36191;SDS011;22233;42.708;23.360;2022-12-24T16:03:30;35.33;;;18.88;;
36191;SDS011;22233;42.708;23.360;2022-12-24T16:06:00;38.67;;;20.50;;
36191;SDS011;22233;42.708;23.360;2022-12-24T16:08:38;36.10;;;19.55;;
36191;SDS011;22233;42.708;23.360;2022-12-24T16:13:43;36.60;;;19.33;;
36191;SDS011;22233;42.708;23.360;2022-12-24T16:16:17;28.13;;;17.83;;
36191;SDS011;22233;42.708;23.360;2022-12-24T16:18:54;27.20;;;15.40;;
36191;SDS011;22233;42.708;23.360;2022-12-24T16:21:25;25.98;;;14.95;;
36191;SDS011;22233;42.708;23.360;2022-12-24T16:23:53;26.33;;;14.35;;
36191;SDS011;22233;42.708;23.360;2022-12-24T16:26:20;22.88;;;13.48;;
36191;SDS011;22233;42.708;23.360;2022-12-24T16:28:46;24.52;;;12.93;;
36191;SDS011;22233;42.708;23.360;2022-12-24T16:31:36;27.27;;;15.00;;